Time;durP1;ratioP1;P1;durP2;ratioP2;P2;SDS_P1;SDS_P2;PMS_P1;PMS_P2;Temp;Humidity;BMP_temperature;BMP_pressure;BME280_temperature;BME280_humidity;BME280_pressure;Samples;Min_cycle;Max_cycle;Signal;HPM_P1;HPM_P2
2022/04/07 00:01:58;;;;;;;34.38;7.53;;;;;;;11.16;63.15;98960.25;5188668;28;20510;-40
2022/04/07 00:04:30;;;;;;;43.67;9.17;;;;;;;11.11;63.28;98954.75;5194877;28;20423;-41
2022/04/07 00:07:03;;;;;;;42.47;8.80;;;;;;;11.17;63.12;98938.09;5191581;28;20413;-41
2022/04/07 00:09:36;;;;;;;42.08;8.57;;;;;;;11.13;63.36;98936.88;5203803;28;20428;-40
2022/04/07 00:12:09;;;;;;;34.40;8.45;;;;;;;11.21;63.35;98949.88;5193949;28;20494;-42
2022/04/07 00:14:42;;;;;;;34.00;7.78;;;;;;;11.19;63.31;98944.00;5199166;28;20418;-43
2022/04/07 00:17:16;;;;;;;37.30;7.18;;;;;;;11.21;63.34;98939.31;5192839;28;22282;-41
2022/04/07 00:19:49;;;;;;;42.97;8.87;;;;;;;11.16;63.37;98941.75;5189991;28;20537;-41
2022/04/07 00:22:22;;;;;;;38.58;8.98;;;;;;;11.23;63.32;98942.59;5192820;28;20411;-40
2022/04/07 00:24:54;;;;;;;45.30;9.57;;;;;;;11.25;63.40;98927.34;5175512;28;20427;-41
2022/04/07 00:27:27;;;;;;;44.05;9.70;;;;;;;11.28;63.30;98934.88;5175392;28;20419;-43
2022/04/07 00:29:59;;;;;;;45.17;8.32;;;;;;;10.63;63.09;98857.13;5191193;28;20514;-41
2022/04/07 00:32:40;;;;;;;42.88;8.38;;;;;;;11.26;63.28;98921.03;5190339;28;20425;-41
2022/04/07 00:35:13;;;;;;;41.00;9.15;;;;;;;11.24;63.17;98909.84;5195554;28;20425;-42
2022/04/07 00:37:47;;;;;;;46.08;9.00;;;;;;;11.14;63.19;98897.03;5177951;28;20422;-40
2022/04/07 00:40:20;;;;;;;51.08;9.80;;;;;;;11.21;63.34;98897.88;5194578;28;20949;-41
2022/04/07 00:42:54;;;;;;;39.45;8.30;;;;;;;11.19;63.40;98888.53;5187047;28;20407;-41
2022/04/07 00:45:26;;;;;;;41.30;8.30;;;;;;;11.16;63.38;98883.63;5191273;28;21148;-41
2022/04/07 00:48:00;;;;;;;51.28;9.07;;;;;;;11.17;63.25;98887.91;5192285;28;20761;-41
2022/04/07 00:50:32;;;;;;;37.97;7.82;;;;;;;11.24;63.33;98899.28;5197186;28;20513;-41
2022/04/07 00:53:06;;;;;;;45.08;10.77;;;;;;;11.23;63.22;98889.75;5188832;28;20527;-42
2022/04/07 00:55:39;;;;;;;39.22;7.80;;;;;;;11.25;63.15;98887.72;5176756;28;20431;-40
2022/04/07 00:58:12;;;;;;;49.25;8.38;;;;;;;11.25;63.28;98879.78;5202820;28;20418;-41
2022/04/07 01:00:44;;;;;;;44.30;9.23;;;;;;;11.27;63.14;98877.75;5191619;28;23283;-41
2022/04/07 01:03:18;;;;;;;39.30;8.25;;;;;;;11.28;63.17;98863.53;5196908;28;20406;-42
2022/04/07 01:05:51;;;;;;;40.63;8.18;;;;;;;11.30;63.22;98858.84;5197240;28;20495;-40
2022/04/07 01:08:24;;;;;;;41.83;9.00;;;;;;;11.30;63.30;98858.84;5202023;28;20496;-41
2022/04/07 01:10:57;;;;;;;36.13;8.77;;;;;;;11.31;63.11;98855.19;5188012;28;20511;-41
2022/04/07 01:13:49;;;;;;;36.03;7.45;;;;;;;11.21;63.19;98817.78;5195617;28;20895;-44
2022/04/07 01:16:28;;;;;;;40.97;8.68;;;;;;;11.28;63.20;98826.53;5193371;28;20402;-41
2022/04/07 01:19:02;;;;;;;32.70;8.23;;;;;;;11.29;63.19;98830.78;5188899;28;20423;-42
2022/04/07 01:21:37;;;;;;;39.95;9.07;;;;;;;11.25;63.21;98824.31;5192612;28;20897;-42
2022/04/07 01:24:11;;;;;;;45.60;7.95;;;;;;;11.28;63.10;98808.03;5197041;28;20445;-47
2022/04/07 01:26:46;;;;;;;34.60;7.47;;;;;;;11.30;63.09;98812.09;5196168;28;20446;-42
2022/04/07 01:29:22;;;;;;;44.03;9.18;;;;;;;11.15;63.00;98790.38;5192843;28;20395;-41
2022/04/07 01:31:54;;;;;;;43.28;8.68;;;;;;;11.30;63.03;98785.69;5199739;28;20422;-42
2022/04/07 01:34:27;;;;;;;44.47;9.60;;;;;;;11.35;62.91;98787.69;5193505;28;20407;-41
2022/04/07 01:37:01;;;;;;;41.85;9.57;;;;;;;11.37;62.82;98787.50;5196563;28;20501;-41
2022/04/07 01:39:33;;;;;;;45.55;9.15;;;;;;;11.36;62.84;98784.03;5194725;28;20984;-41
2022/04/07 01:42:09;;;;;;;49.10;9.97;;;;;;;11.12;62.76;98724.72;5196428;28;20454;-41
2022/04/07 01:44:48;;;;;;;42.30;10.10;;;;;;;11.29;62.91;98751.53;5194356;28;20751;-41
2022/04/07 01:47:23;;;;;;;51.40;11.00;;;;;;;11.36;62.73;98751.50;5194547;28;20820;-43
2022/04/07 01:50:04;;;;;;;56.30;11.13;;;;;;;11.34;62.83;98746.44;5191773;28;20443;-41
2022/04/07 01:52:38;;;;;;;44.30;9.93;;;;;;;11.35;62.90;98726.91;5195219;28;20447;-42
2022/04/07 01:55:11;;;;;;;47.05;10.75;;;;;;;11.19;62.98;98683.25;5204930;28;20475;-42
2022/04/07 01:57:45;;;;;;;45.35;9.07;;;;;;;11.32;62.95;98714.09;5196495;28;20427;-46
2022/04/07 02:00:18;;;;;;;46.03;9.10;;;;;;;11.32;62.85;98688.50;5192554;28;20538;-41
2022/04/07 02:02:51;;;;;;;55.35;10.32;;;;;;;11.35;62.92;98687.28;5197404;28;20551;-40
2022/04/07 02:05:23;;;;;;;41.85;9.07;;;;;;;11.35;62.76;98695.19;5194117;28;20421;-40
2022/04/07 02:07:55;;;;;;;42.95;8.70;;;;;;;11.31;62.79;98712.50;5200910;28;20489;-40
2022/04/07 02:10:30;;;;;;;42.05;9.57;;;;;;;11.22;62.96;98706.59;5181521;28;20439;-41
2022/04/07 02:13:04;;;;;;;46.00;9.57;;;;;;;11.26;62.83;98693.78;5191147;28;20484;-41
2022/04/07 02:15:36;;;;;;;42.92;9.15;;;;;;;11.19;63.04;98708.84;5194203;28;20510;-41
2022/04/07 02:18:09;;;;;;;39.00;8.60;;;;;;;11.21;62.95;98704.16;5194596;28;20778;-41
2022/04/07 02:20:41;;;;;;;36.58;10.15;;;;;;;11.21;62.95;98688.31;5190693;28;20423;-42
2022/04/07 02:23:14;;;;;;;49.08;10.05;;;;;;;11.20;62.88;98689.34;5194423;28;20427;-41
2022/04/07 02:25:46;;;;;;;58.37;12.10;;;;;;;11.14;62.76;98679.59;5190942;28;20507;-41
2022/04/07 02:28:22;;;;;;;53.75;11.20;;;;;;;11.19;62.93;98672.69;5177002;28;20421;-42
2022/04/07 02:30:55;;;;;;;59.35;11.68;;;;;;;11.12;62.91;98666.59;5189803;28;20832;-41
2022/04/07 02:33:27;;;;;;;45.60;11.07;;;;;;;11.19;62.96;98677.16;5189947;28;20490;-41
2022/04/07 02:36:01;;;;;;;61.00;12.48;;;;;;;11.09;63.01;98656.44;5195018;28;20483;-45
2022/04/07 02:38:36;;;;;;;71.05;14.57;;;;;;;11.15;63.15;98665.34;5196695;28;20514;-41
2022/04/07 02:41:08;;;;;;;60.10;12.23;;;;;;;11.16;63.29;98651.16;5195208;28;20431;-42
2022/04/07 02:43:42;;;;;;;55.28;11.60;;;;;;;11.20;63.03;98652.34;5187839;28;20438;-45
2022/04/07 02:46:15;;;;;;;65.45;12.18;;;;;;;11.20;63.00;98649.69;5198726;28;20429;-43
2022/04/07 02:48:49;;;;;;;67.22;14.45;;;;;;;11.21;63.05;98640.75;5191161;28;20474;-43
2022/04/07 02:51:23;;;;;;;76.70;14.90;;;;;;;11.13;62.94;98635.72;5199446;28;20465;-41
2022/04/07 02:53:58;;;;;;;73.90;13.80;;;;;;;11.23;62.91;98617.59;5197739;28;20456;-42
2022/04/07 02:56:30;;;;;;;66.45;16.02;;;;;;;11.24;62.88;98616.56;5180348;28;20914;-41
2022/04/07 02:59:04;;;;;;;63.83;14.43;;;;;;;11.25;62.94;98602.34;5192243;28;20407;-40
2022/04/07 03:01:37;;;;;;;72.38;14.13;;;;;;;11.05;62.92;98582.06;5206666;28;20428;-41
2022/04/07 03:04:09;;;;;;;63.65;12.88;;;;;;;11.23;63.00;98599.91;5191469;28;20787;-44
2022/04/07 03:06:42;;;;;;;63.97;14.43;;;;;;;11.24;62.93;98595.41;5193856;28;20914;-41
2022/04/07 03:09:14;;;;;;;73.22;13.45;;;;;;;11.23;62.94;98589.31;5196259;28;20441;-46
2022/04/07 03:11:47;;;;;;;67.35;13.30;;;;;;;11.27;62.91;98582.63;5195021;28;21428;-42
2022/04/07 03:14:22;;;;;;;77.70;14.68;;;;;;;11.29;62.82;98582.41;5194845;28;20422;-42
2022/04/07 03:16:55;;;;;;;67.32;14.05;;;;;;;11.30;62.78;98568.16;5194061;28;20852;-40
2022/04/07 03:19:27;;;;;;;61.58;13.27;;;;;;;11.28;62.73;98555.16;5190968;28;20427;-40
2022/04/07 03:22:37;;;;;;;64.93;13.20;;;;;;;11.29;62.94;98566.53;5192041;28;20411;-42
2022/04/07 03:25:10;;;;;;;55.88;11.35;;;;;;;11.30;62.74;98554.94;5188263;28;20775;-42
2022/04/07 03:27:42;;;;;;;53.17;10.63;;;;;;;11.28;62.85;98541.16;5198045;28;20461;-47
2022/04/07 03:30:17;;;;;;;57.97;10.70;;;;;;;11.26;62.97;98535.25;5189777;28;25087;-41
2022/04/07 03:32:49;;;;;;;56.22;12.18;;;;;;;11.25;62.89;98518.59;5192473;28;20422;-41
2022/04/07 03:35:22;;;;;;;57.92;11.38;;;;;;;11.20;62.95;98512.31;5199543;28;20885;-41
2022/04/07 03:37:54;;;;;;;51.27;11.80;;;;;;;11.17;62.96;98499.53;5196048;28;20422;-41
2022/04/07 03:40:27;;;;;;;60.88;11.90;;;;;;;11.06;62.92;98488.63;5186775;28;20812;-39
2022/04/07 03:42:59;;;;;;;51.53;11.20;;;;;;;11.00;63.05;98470.97;5200073;28;20420;-47
2022/04/07 03:45:33;;;;;;;57.67;12.65;;;;;;;11.00;62.86;98446.38;5204921;28;20425;-41
2022/04/07 03:48:07;;;;;;;60.97;12.20;;;;;;;10.97;63.01;98442.34;5189237;28;20429;-41
2022/04/07 03:50:40;;;;;;;47.15;10.82;;;;;;;10.97;63.03;98442.34;5196896;28;20429;-42
2022/04/07 03:53:13;;;;;;;51.47;10.73;;;;;;;10.97;63.02;98431.78;5193099;28;20433;-40
2022/04/07 03:55:45;;;;;;;49.67;10.13;;;;;;;11.00;62.90;98441.91;5190219;28;21149;-41
2022/04/07 03:58:18;;;;;;;46.70;9.15;;;;;;;11.01;63.15;98417.13;5194458;28;20409;-41
2022/04/07 04:00:52;;;;;;;46.22;10.00;;;;;;;10.99;63.22;98398.03;5192111;28;20409;-42
2022/04/07 04:03:27;;;;;;;34.05;8.93;;;;;;;10.97;63.01;98355.19;5194769;28;26876;-42
2022/04/07 04:06:00;;;;;;;42.58;8.13;;;;;;;10.98;63.22;98370.00;5192487;28;20421;-41
2022/04/07 04:08:32;;;;;;;36.38;7.25;;;;;;;10.90;63.36;98340.38;5200939;28;20431;-41
2022/04/07 04:11:05;;;;;;;29.20;6.95;;;;;;;10.95;63.22;98353.78;5192998;28;20407;-41
2022/04/07 04:13:37;;;;;;;32.37;7.63;;;;;;;10.93;63.26;98380.41;5201072;28;20433;-42
2022/04/07 04:16:14;;;;;;;35.92;7.22;;;;;;;10.91;63.38;98339.38;5188422;28;20491;-41
2022/04/07 04:18:47;;;;;;;31.23;6.72;;;;;;;10.92;63.42;98333.88;5194410;28;20407;-43
2022/04/07 04:21:19;;;;;;;42.33;8.02;;;;;;;10.88;63.42;98332.69;5189192;28;20497;-42
2022/04/07 04:23:52;;;;;;;31.33;7.63;;;;;;;10.88;63.47;98337.97;5192631;28;20415;-41
2022/04/07 04:26:24;;;;;;;34.65;6.80;;;;;;;10.84;63.66;98327.03;5200852;28;20422;-42
2022/04/07 04:28:57;;;;;;;33.72;7.18;;;;;;;10.84;63.59;98357.91;5188286;28;20830;-42
2022/04/07 04:31:32;;;;;;;24.17;6.70;;;;;;;10.81;63.63;98339.84;5187114;28;20426;-42
2022/04/07 04:34:05;;;;;;;37.20;8.50;;;;;;;10.82;63.74;98418.03;5199869;28;20902;-42
2022/04/07 04:36:38;;;;;;;16.17;4.07;;;;;;;10.74;63.65;98426.19;5184452;28;20783;-43
2022/04/07 04:39:10;;;;;;;17.42;3.70;;;;;;;10.46;63.82;98418.56;5191888;28;20448;-42
2022/04/07 04:41:43;;;;;;;12.32;4.40;;;;;;;10.08;63.79;98420.06;5195408;28;20417;-48
2022/04/07 04:44:15;;;;;;;15.30;3.78;;;;;;;9.63;63.99;98419.91;5198063;28;20428;-43
2022/04/07 04:46:49;;;;;;;13.88;3.63;;;;;;;9.34;64.20;98436.09;5190413;28;20427;-48
2022/04/07 04:49:22;;;;;;;12.40;3.53;;;;;;;8.87;64.37;98462.31;5193473;28;20423;-43
2022/04/07 04:51:54;;;;;;;8.95;3.42;;;;;;;8.43;64.47;98439.84;5189716;28;20505;-42
2022/04/07 04:54:27;;;;;;;13.82;3.35;;;;;;;8.06;64.59;98438.41;5196409;28;20863;-39
2022/04/07 04:56:59;;;;;;;9.88;3.20;;;;;;;7.77;64.61;98434.97;5189423;28;20525;-40
2022/04/07 04:59:32;;;;;;;9.77;3.45;;;;;;;7.58;64.43;98435.59;5195737;28;20426;-40
2022/04/07 05:02:06;;;;;;;13.70;3.67;;;;;;;7.43;64.70;98411.22;5192136;28;20488;-40
2022/04/07 05:04:38;;;;;;;13.55;3.42;;;;;;;7.35;64.73;98405.13;5196731;28;20458;-40
2022/04/07 05:07:11;;;;;;;13.63;3.87;;;;;;;7.30;64.55;98385.66;5195796;28;20521;-41
2022/04/07 05:09:43;;;;;;;16.10;4.53;;;;;;;7.18;64.58;98376.69;5201371;28;20500;-40
2022/04/07 05:12:16;;;;;;;13.65;4.07;;;;;;;6.49;64.65;98293.28;5204343;28;20926;-41
2022/04/07 05:14:48;;;;;;;14.38;4.28;;;;;;;7.01;64.62;98386.63;5210196;28;20881;-41
2022/04/07 05:17:22;;;;;;;18.52;4.85;;;;;;;6.92;64.69;98381.47;5206889;28;20419;-41
2022/04/07 05:19:54;;;;;;;18.83;4.77;;;;;;;6.85;64.94;98393.72;5206239;28;20905;-41
2022/04/07 05:22:27;;;;;;;21.30;5.25;;;;;;;6.88;64.80;98403.03;5201492;28;20789;-40
2022/04/07 05:25:00;;;;;;;20.23;4.80;;;;;;;6.83;64.90;98408.84;5204773;28;20424;-40
2022/04/07 05:27:32;;;;;;;27.02;5.63;;;;;;;6.73;64.97;98420.63;5192198;28;20415;-42
2022/04/07 05:30:06;;;;;;;28.25;6.03;;;;;;;6.67;64.96;98432.66;5192168;28;20506;-42
2022/04/07 05:32:40;;;;;;;20.95;5.43;;;;;;;6.52;65.27;98418.75;5190424;28;20498;-41
2022/04/07 05:35:14;;;;;;;26.57;6.57;;;;;;;6.63;64.99;98426.19;5189140;28;20897;-41
2022/04/07 05:37:47;;;;;;;29.83;6.50;;;;;;;6.59;65.00;98409.16;5189869;28;20431;-43
2022/04/07 05:40:19;;;;;;;29.17;5.80;;;;;;;6.67;64.81;98409.88;5195667;28;20494;-40
2022/04/07 05:42:51;;;;;;;34.72;5.95;;;;;;;6.73;64.83;98412.75;5193145;28;20832;-40
2022/04/07 05:45:24;;;;;;;27.38;6.97;;;;;;;6.77;65.04;98406.94;5192532;28;20411;-41
2022/04/07 05:47:58;;;;;;;29.97;5.83;;;;;;;6.80;64.82;98392.66;5189574;28;20437;-40
2022/04/07 05:50:31;;;;;;;27.45;6.70;;;;;;;6.89;64.94;98379.22;5193934;28;20518;-44
2022/04/07 05:53:04;;;;;;;30.35;6.82;;;;;;;6.97;64.83;98386.19;5196236;28;20473;-41
2022/04/07 05:55:37;;;;;;;30.42;6.10;;;;;;;6.97;64.91;98352.06;5189644;28;20423;-42
2022/04/07 05:58:10;;;;;;;25.40;5.53;;;;;;;7.15;64.87;98356.84;5190867;28;20457;-42
2022/04/07 06:00:42;;;;;;;23.67;4.95;;;;;;;7.13;64.94;98316.88;5190166;28;20510;-45
2022/04/07 06:03:16;;;;;;;20.98;4.38;;;;;;;7.34;65.11;98340.47;5195591;28;20409;-42
2022/04/07 06:05:52;;;;;;;32.63;5.10;;;;;;;7.43;64.86;98343.75;5186140;28;20422;-46
2022/04/07 06:08:25;;;;;;;17.17;4.10;;;;;;;7.52;65.08;98331.31;5205213;28;20696;-42
2022/04/07 06:10:58;;;;;;;22.65;4.85;;;;;;;7.32;64.97;98303.09;5202863;28;20648;-43
2022/04/07 06:13:30;;;;;;;13.25;3.65;;;;;;;7.62;64.91;98321.28;5189263;28;20407;-43
2022/04/07 06:16:03;;;;;;;15.90;3.57;;;;;;;7.69;65.12;98318.69;5205693;28;20420;-41
2022/04/07 06:18:37;;;;;;;15.73;3.83;;;;;;;7.76;65.20;98309.84;5206203;28;20417;-42
2022/04/07 06:21:09;;;;;;;14.33;4.20;;;;;;;7.81;65.31;98259.34;5206094;28;20413;-45
2022/04/07 06:23:42;;;;;;;17.52;3.63;;;;;;;7.85;65.13;98242.97;5215127;28;20422;-46
2022/04/07 06:26:14;;;;;;;9.68;3.25;;;;;;;7.84;65.32;98230.84;5198527;28;20913;-43
2022/04/07 06:28:47;;;;;;;10.57;3.00;;;;;;;7.84;65.42;98236.13;5203587;28;20477;-44
2022/04/07 06:31:20;;;;;;;16.85;2.75;;;;;;;7.91;65.38;98235.34;5201373;28;20411;-43
2022/04/07 06:33:53;;;;;;;9.93;2.92;;;;;;;7.93;65.42;98212.28;5185475;28;20411;-42
2022/04/07 06:36:26;;;;;;;9.52;3.15;;;;;;;7.97;65.46;98181.97;5185825;28;20434;-40
2022/04/07 06:38:58;;;;;;;16.10;3.72;;;;;;;7.98;65.37;98210.69;5184419;28;20411;-41
2022/04/07 06:41:31;;;;;;;15.60;3.93;;;;;;;8.00;65.43;98239.41;5191091;28;20493;-43
2022/04/07 06:44:04;;;;;;;10.55;3.83;;;;;;;7.94;65.50;98229.69;5185322;28;20830;-43
2022/04/07 06:46:36;;;;;;;16.23;4.35;;;;;;;8.04;65.43;98224.84;5190376;28;20426;-43
2022/04/07 06:49:10;;;;;;;16.88;3.85;;;;;;;8.00;65.17;98208.69;5188649;28;20505;-46
2022/04/07 06:51:43;;;;;;;10.57;3.17;;;;;;;8.06;65.28;98183.44;5187537;28;20422;-42
2022/04/07 06:54:15;;;;;;;11.27;2.77;;;;;;;8.06;65.33;98207.88;5186822;28;20451;-44
2022/04/07 06:56:47;;;;;;;16.63;3.55;;;;;;;8.11;65.47;98190.69;5188906;28;20423;-43
2022/04/07 06:59:20;;;;;;;9.02;3.30;;;;;;;8.16;65.28;98197.00;5186315;28;20978;-41
2022/04/07 07:01:52;;;;;;;7.80;2.17;;;;;;;8.18;65.15;98194.97;5195528;28;20446;-42
2022/04/07 07:04:26;;;;;;;7.60;2.50;;;;;;;8.23;65.12;98192.53;5187738;28;20411;-49
2022/04/07 07:06:59;;;;;;;8.35;2.70;;;;;;;8.27;65.15;98188.53;5182538;28;20469;-41
2022/04/07 07:09:32;;;;;;;10.18;2.47;;;;;;;8.25;65.07;98180.03;5202391;28;20420;-44
2022/04/07 07:12:05;;;;;;;7.05;2.45;;;;;;;8.33;65.00;98186.91;5190381;28;20427;-43
2022/04/07 07:14:37;;;;;;;12.18;2.55;;;;;;;8.39;65.07;98180.06;5190154;28;20521;-42
2022/04/07 07:17:10;;;;;;;11.18;2.70;;;;;;;8.42;64.95;98177.81;5184834;28;20873;-42
2022/04/07 07:19:44;;;;;;;11.63;2.45;;;;;;;8.63;64.79;98184.72;5192248;28;20431;-42
2022/04/07 07:22:17;;;;;;;17.90;3.22;;;;;;;8.75;64.81;98192.84;5185896;28;20463;-41
2022/04/07 07:24:51;;;;;;;14.77;3.15;;;;;;;8.84;64.74;98194.25;5190326;28;20489;-42
2022/04/07 07:27:23;;;;;;;10.15;3.22;;;;;;;8.91;64.78;98188.97;5185834;28;20415;-42
2022/04/07 07:29:56;;;;;;;15.27;2.75;;;;;;;8.96;64.66;98191.81;5189577;28;20447;-42
2022/04/07 07:32:28;;;;;;;13.48;3.38;;;;;;;8.98;64.45;98169.53;5184588;28;20455;-44
2022/04/07 07:35:02;;;;;;;11.27;2.38;;;;;;;9.18;64.53;98182.66;5185210;28;20506;-42
2022/04/07 07:37:35;;;;;;;14.38;3.78;;;;;;;9.51;64.13;98173.88;5188007;28;20916;-49
2022/04/07 07:40:11;;;;;;;15.63;3.30;;;;;;;9.76;64.09;98160.00;5186189;28;20433;-42
2022/04/07 07:42:43;;;;;;;11.93;2.95;;;;;;;10.90;63.13;98151.09;5188158;28;20422;-42
2022/04/07 07:45:17;;;;;;;12.68;2.90;;;;;;;11.78;62.34;98163.94;5184395;28;20444;-43
2022/04/07 07:47:51;;;;;;;14.00;2.35;;;;;;;13.01;61.11;98158.28;5187427;28;20880;-46
2022/04/07 07:50:25;;;;;;;15.48;3.20;;;;;;;13.55;60.55;98146.44;5184798;28;20481;-44
2022/04/07 07:52:58;;;;;;;7.80;2.40;;;;;;;14.22;60.02;98161.75;5187185;28;20830;-43
2022/04/07 07:55:35;;;;;;;8.77;2.97;;;;;;;15.63;58.41;98133.25;5183531;28;20442;-45
2022/04/07 07:58:08;;;;;;;10.05;2.25;;;;;;;16.85;56.96;98138.97;5192202;28;20426;-46
2022/04/07 08:00:40;;;;;;;12.33;2.57;;;;;;;17.70;56.17;98133.50;5184930;28;20446;-43
2022/04/07 08:03:13;;;;;;;9.47;2.00;;;;;;;18.03;55.75;98139.50;5185897;28;20504;-44
2022/04/07 08:05:46;;;;;;;13.97;2.20;;;;;;;18.04;55.69;98123.22;5187294;28;20897;-44
2022/04/07 08:08:19;;;;;;;13.88;3.25;;;;;;;17.73;55.97;98114.31;5186956;28;20540;-42
2022/04/07 08:10:51;;;;;;;11.80;2.58;;;;;;;17.62;55.94;98123.31;5186858;28;21223;-42
2022/04/07 08:13:24;;;;;;;10.63;2.60;;;;;;;17.80;55.66;98101.53;5185633;28;20914;-43
2022/04/07 08:15:56;;;;;;;17.70;3.10;;;;;;;17.65;55.61;98109.47;5186823;28;20438;-39
2022/04/07 08:18:29;;;;;;;8.90;2.08;;;;;;;17.85;55.51;98120.25;5183915;28;20513;-42
2022/04/07 08:21:03;;;;;;;11.47;2.20;;;;;;;18.01;55.15;98113.06;5184852;28;20472;-43
2022/04/07 08:23:35;;;;;;;13.35;2.65;;;;;;;17.94;55.16;98101.84;5190157;28;20506;-42
2022/04/07 08:26:08;;;;;;;14.48;2.55;;;;;;;17.48;55.55;98123.81;5186892;28;20543;-42
2022/04/07 08:28:40;;;;;;;18.90;3.55;;;;;;;16.90;55.80;98124.84;5188817;28;20536;-42
2022/04/07 08:31:13;;;;;;;12.90;3.72;;;;;;;16.44;55.99;98113.84;5188615;28;20817;-42
2022/04/07 08:33:45;;;;;;;17.02;3.50;;;;;;;16.00;56.26;98124.63;5188449;28;20516;-42
2022/04/07 08:36:19;;;;;;;16.13;3.88;;;;;;;15.70;56.50;98127.78;5194366;28;20504;-43
2022/04/07 08:38:51;;;;;;;13.55;3.53;;;;;;;15.76;56.24;98137.41;5195003;28;20506;-42
2022/04/07 08:41:24;;;;;;;20.60;4.22;;;;;;;16.06;56.06;98132.41;5198147;28;20473;-42
2022/04/07 08:43:58;;;;;;;19.83;4.32;;;;;;;16.43;55.40;98110.38;5200078;28;20558;-46
2022/04/07 08:46:33;;;;;;;14.80;4.00;;;;;;;16.16;55.26;98133.56;5203830;28;20762;-43
2022/04/07 08:49:07;;;;;;;15.23;3.83;;;;;;;16.05;55.52;98114.06;5191925;28;20824;-42
2022/04/07 08:51:41;;;;;;;15.80;3.80;;;;;;;15.70;55.26;98143.75;5189093;28;20969;-44
2022/04/07 08:54:14;;;;;;;22.10;4.68;;;;;;;15.04;55.71;98099.28;5195003;28;20480;-46
2022/04/07 08:56:46;;;;;;;18.73;4.53;;;;;;;14.92;55.78;98125.16;5195874;28;20617;-42
2022/04/07 08:59:19;;;;;;;18.95;4.93;;;;;;;14.62;55.87;98133.50;5213941;28;20428;-43
2022/04/07 09:01:51;;;;;;;15.00;3.60;;;;;;;14.43;55.99;98135.53;5211393;28;20509;-45
2022/04/07 09:04:24;;;;;;;16.05;4.30;;;;;;;14.37;55.98;98140.00;5205198;28;20874;-44
2022/04/07 09:06:58;;;;;;;21.20;4.45;;;;;;;14.48;55.91;98143.59;5198714;28;20818;-42
2022/04/07 09:09:33;;;;;;;22.50;5.15;;;;;;;14.78;55.77;98140.66;5186470;28;20462;-42
2022/04/07 09:12:07;;;;;;;18.87;3.80;;;;;;;14.90;55.32;98146.69;5193495;28;21054;-42
2022/04/07 09:14:40;;;;;;;18.27;3.72;;;;;;;15.05;55.13;98148.75;5204457;28;20991;-42
2022/04/07 09:17:13;;;;;;;21.87;5.03;;;;;;;15.02;54.92;98159.88;5191796;28;20456;-42
2022/04/07 09:19:51;;;;;;;18.13;4.67;;;;;;;14.90;54.95;98167.16;5202507;28;20504;-41
2022/04/07 09:22:34;;;;;;;18.50;4.32;;;;;;;14.68;55.00;98153.75;5208586;28;20793;-44
2022/04/07 09:25:08;;;;;;;17.30;4.55;;;;;;;14.61;54.93;98147.81;5187265;28;20415;-42
2022/04/07 09:27:41;;;;;;;20.53;5.47;;;;;;;14.51;54.96;98137.84;5187472;28;20423;-45
2022/04/07 09:30:14;;;;;;;15.02;3.70;;;;;;;14.68;54.78;98149.28;5203559;28;20431;-44
2022/04/07 09:32:47;;;;;;;21.53;4.83;;;;;;;14.66;54.54;98151.38;5208611;28;20508;-41
2022/04/07 09:35:19;;;;;;;19.52;4.30;;;;;;;14.53;54.64;98159.66;5208245;28;20447;-43
2022/04/07 09:38:01;;;;;;;20.25;4.10;;;;;;;14.27;54.70;98156.53;5195078;28;20967;-41
2022/04/07 09:40:34;;;;;;;20.85;4.70;;;;;;;13.96;54.85;98173.75;5188087;28;20415;-44
2022/04/07 09:43:06;;;;;;;24.23;5.70;;;;;;;13.69;54.69;98162.91;5208573;28;20468;-45
2022/04/07 09:45:45;;;;;;;19.40;5.47;;;;;;;13.38;55.02;98156.19;5204474;28;20431;-40
2022/04/07 09:48:18;;;;;;;28.77;6.25;;;;;;;13.05;55.01;98148.81;5191334;28;20413;-42
2022/04/07 09:51:05;;;;;;;21.15;4.88;;;;;;;13.06;54.85;98175.06;5190492;28;20427;-43
2022/04/07 09:53:42;;;;;;;25.40;5.27;;;;;;;12.40;55.06;98108.13;5190750;28;20465;-46
2022/04/07 09:56:14;;;;;;;23.27;5.63;;;;;;;12.62;55.16;98179.88;5195839;28;20533;-44
2022/04/07 09:58:47;;;;;;;20.50;5.03;;;;;;;12.49;54.94;98169.50;5195247;28;20840;-40
2022/04/07 10:01:20;;;;;;;27.77;6.13;;;;;;;12.45;55.08;98174.44;5193642;28;20430;-42
2022/04/07 10:03:53;;;;;;;26.33;5.85;;;;;;;12.29;55.01;98167.13;5192612;28;20409;-42
2022/04/07 10:06:26;;;;;;;24.80;5.20;;;;;;;12.33;55.18;98178.91;5190701;28;20419;-46
2022/04/07 10:09:02;;;;;;;28.50;6.38;;;;;;;12.42;55.04;98180.19;5186966;28;20463;-41
2022/04/07 10:11:35;;;;;;;25.63;6.63;;;;;;;12.42;54.94;98174.91;5188151;28;20450;-42
2022/04/07 10:14:09;;;;;;;26.02;5.43;;;;;;;12.53;54.91;98180.44;5195603;28;20491;-40
2022/04/07 10:16:41;;;;;;;25.40;6.10;;;;;;;12.62;54.90;98176.41;5187032;28;20415;-43
2022/04/07 10:19:21;;;;;;;25.50;6.53;;;;;;;12.68;54.77;98173.66;5189124;28;20834;-43
2022/04/07 10:22:16;;;;;;;25.77;5.93;;;;;;;12.81;54.64;98182.44;5189758;28;20419;-42
2022/04/07 10:24:55;;;;;;;23.17;6.47;;;;;;;12.87;54.67;98187.63;5185334;28;20423;-41
2022/04/07 10:27:30;;;;;;;25.80;4.93;;;;;;;12.93;54.58;98181.41;5184488;28;20460;-42
2022/04/07 10:30:46;;;;;;;30.07;6.60;;;;;;;13.03;54.60;98186.13;5188026;28;20427;-41
2022/04/07 10:33:42;;;;;;;28.02;6.03;;;;;;;13.26;54.27;98173.94;5190010;28;20415;-46
2022/04/07 10:36:17;;;;;;;26.98;6.45;;;;;;;13.41;54.25;98186.69;5188348;28;20423;-42
2022/04/07 10:38:52;;;;;;;23.75;6.20;;;;;;;13.41;54.09;98186.69;5185308;28;20422;-41
2022/04/07 10:41:53;;;;;;;23.80;6.70;;;;;;;13.61;54.08;98185.28;5191044;28;20738;-43
2022/04/07 10:44:28;;;;;;;25.27;5.10;;;;;;;13.76;53.68;98155.59;5174580;28;20513;-44
2022/04/07 10:47:04;;;;;;;23.70;4.75;;;;;;;13.89;53.63;98194.31;5186110;28;20563;-43
2022/04/07 10:49:46;;;;;;;26.63;5.80;;;;;;;13.97;53.37;98211.72;5186695;28;20499;-41
2022/04/07 10:52:27;;;;;;;24.33;5.07;;;;;;;13.78;53.66;98165.97;5190214;28;20750;-41
2022/04/07 10:55:14;;;;;;;17.90;4.27;;;;;;;13.72;53.52;98158.94;5183926;28;20466;-41
2022/04/07 10:58:15;;;;;;;28.83;5.70;;;;;;;13.73;53.50;98184.47;5187981;28;20429;-41
2022/04/07 11:00:47;;;;;;;21.27;5.38;;;;;;;13.84;53.36;98189.72;5191489;28;20411;-41
2022/04/07 11:03:20;;;;;;;23.33;5.47;;;;;;;13.90;53.23;98189.81;5185879;28;20421;-42
2022/04/07 11:05:54;;;;;;;18.15;4.63;;;;;;;13.84;53.15;98187.09;5193651;28;20863;-42
2022/04/07 11:08:30;;;;;;;18.88;4.53;;;;;;;13.86;53.00;98183.38;5193730;28;20413;-43
2022/04/07 11:11:02;;;;;;;22.43;5.17;;;;;;;13.91;53.27;98186.94;5185952;28;20762;-43
2022/04/07 11:13:49;;;;;;;21.40;5.05;;;;;;;14.03;53.05;98190.34;5191646;28;20540;-41
2022/04/07 11:16:30;;;;;;;21.52;4.72;;;;;;;14.08;52.90;98189.63;5192134;28;20434;-43
2022/04/07 11:19:18;;;;;;;25.17;5.35;;;;;;;14.14;52.76;98201.94;5185523;28;20530;-41
2022/04/07 11:21:52;;;;;;;23.45;5.53;;;;;;;14.06;52.74;98202.34;5184905;28;20501;-46
2022/04/07 11:24:28;;;;;;;25.17;5.90;;;;;;;13.92;52.77;98201.00;5186941;28;20619;-45
2022/04/07 11:27:39;;;;;;;18.85;4.22;;;;;;;13.94;52.66;98197.09;5180894;28;20432;-44
2022/04/07 11:30:14;;;;;;;18.35;4.55;;;;;;;14.00;52.68;98212.06;5184022;28;21028;-42
2022/04/07 11:33:39;;;;;;;31.00;5.77;;;;;;;13.93;52.61;98197.31;5192812;28;21973;-41
2022/04/07 11:36:39;;;;;;;28.42;5.35;;;;;;;13.89;52.73;98189.00;5151206;28;20419;-42
2022/04/07 11:39:15;;;;;;;31.75;6.43;;;;;;;13.88;52.81;98213.13;5183142;28;20512;-43
2022/04/07 11:41:48;;;;;;;22.40;5.20;;;;;;;13.87;52.62;98192.94;5187831;28;21074;-45
2022/04/07 11:44:26;;;;;;;23.20;5.60;;;;;;;13.93;52.78;98215.88;5183033;28;20787;-42
2022/04/07 11:47:02;;;;;;;24.42;5.65;;;;;;;13.95;52.59;98213.81;5189807;28;20419;-42
2022/04/07 11:49:35;;;;;;;25.27;5.75;;;;;;;14.03;52.37;98221.41;5189802;28;20481;-45
2022/04/07 11:52:08;;;;;;;29.63;6.00;;;;;;;14.06;52.31;98226.25;5167801;28;20417;-42
2022/04/07 11:54:41;;;;;;;25.00;5.28;;;;;;;14.01;52.11;98216.31;5180690;28;20798;-43
2022/04/07 11:57:13;;;;;;;22.83;5.85;;;;;;;14.13;52.14;98200.34;5192112;28;20804;-42
2022/04/07 11:59:46;;;;;;;28.65;5.88;;;;;;;14.10;52.07;98232.69;5186272;28;20944;-41
2022/04/07 12:02:24;;;;;;;22.67;5.63;;;;;;;14.12;52.06;98232.41;5190084;28;20426;-40